sensor_id;sensor_type;location;lat;lon;timestamp;pressure;altitude;pressure_sealevel;temperature;humidity
68329;BME280;55182;56.864;60.554;2024-01-11T00:02:16;77929.66;;;-143.60;74.36
68329;BME280;55182;56.864;60.554;2024-01-11T00:04:41;77943.72;;;-143.60;74.61
68329;BME280;55182;56.864;60.554;2024-01-11T00:07:07;77955.78;;;-143.60;74.53
68329;BME280;55182;56.864;60.554;2024-01-11T00:09:32;77943.72;;;-143.60;74.50
68329;BME280;55182;56.864;60.554;2024-01-11T00:11:57;77941.72;;;-143.60;74.07
68329;BME280;55182;56.864;60.554;2024-01-11T00:14:23;77927.66;;;-143.60;74.07
68329;BME280;55182;56.864;60.554;2024-01-11T00:16:48;77919.59;;;-143.60;73.77
68329;BME280;55182;56.864;60.554;2024-01-11T00:19:14;77923.63;;;-143.60;74.09
68329;BME280;55182;56.864;60.554;2024-01-11T00:21:39;77911.56;;;-143.60;73.65
68329;BME280;55182;56.864;60.554;2024-01-11T00:24:05;77899.50;;;-143.60;73.86
68329;BME280;55182;56.864;60.554;2024-01-11T00:26:30;77895.47;;;-143.60;73.96
68329;BME280;55182;56.864;60.554;2024-01-11T00:28:55;77895.47;;;-143.60;73.96
68329;BME280;55182;56.864;60.554;2024-01-11T00:31:21;77899.50;;;-143.60;73.85
68329;BME280;55182;56.864;60.554;2024-01-11T00:33:46;77911.56;;;-143.60;73.67
68329;BME280;55182;56.864;60.554;2024-01-11T00:36:17;77911.56;;;-143.60;73.91
68329;BME280;55182;56.864;60.554;2024-01-11T00:38:42;77919.59;;;-143.60;73.65
68329;BME280;55182;56.864;60.554;2024-01-11T00:41:08;77923.63;;;-143.60;73.92
68329;BME280;55182;56.864;60.554;2024-01-11T00:43:33;77937.69;;;-143.60;73.68
68329;BME280;55182;56.864;60.554;2024-01-11T00:45:59;77927.66;;;-143.60;73.75
68329;BME280;55182;56.864;60.554;2024-01-11T00:48:24;77927.66;;;-143.60;73.51
68329;BME280;55182;56.864;60.554;2024-01-11T00:50:50;77909.56;;;-143.60;73.33
68329;BME280;55182;56.864;60.554;2024-01-11T00:53:15;77911.56;;;-143.60;73.15
68329;BME280;55182;56.864;60.554;2024-01-11T00:55:41;77903.53;;;-143.60;73.02
68329;BME280;55182;56.864;60.554;2024-01-11T00:58:06;77899.50;;;-143.60;72.74
68329;BME280;55182;56.864;60.554;2024-01-11T01:00:32;77907.53;;;-143.60;73.01
68329;BME280;55182;56.864;60.554;2024-01-11T01:02:57;77895.47;;;-143.60;72.81
68329;BME280;55182;56.864;60.554;2024-01-11T01:05:23;77895.47;;;-143.60;72.94
68329;BME280;55182;56.864;60.554;2024-01-11T01:07:48;77903.53;;;-143.60;72.81
68329;BME280;55182;56.864;60.554;2024-01-11T01:10:14;77907.53;;;-143.60;73.09
68329;BME280;55182;56.864;60.554;2024-01-11T01:12:39;77913.56;;;-143.60;72.94
68329;BME280;55182;56.864;60.554;2024-01-11T01:15:05;77917.59;;;-143.60;73.14
68329;BME280;55182;56.864;60.554;2024-01-11T01:17:31;77913.56;;;-143.60;73.32
68329;BME280;55182;56.864;60.554;2024-01-11T01:19:56;77919.59;;;-143.60;73.04
68329;BME280;55182;56.864;60.554;2024-01-11T01:22:22;77909.56;;;-143.60;73.25
68329;BME280;55182;56.864;60.554;2024-01-11T01:24:48;77919.59;;;-143.60;73.60
68329;BME280;55182;56.864;60.554;2024-01-11T01:27:13;77915.59;;;-143.60;73.33
68329;BME280;55182;56.864;60.554;2024-01-11T01:29:38;77911.56;;;-143.60;73.44
68329;BME280;55182;56.864;60.554;2024-01-11T01:32:04;77915.59;;;-143.60;73.29
68329;BME280;55182;56.864;60.554;2024-01-11T01:34:30;77913.56;;;-143.60;73.46
68329;BME280;55182;56.864;60.554;2024-01-11T01:36:55;77919.59;;;-143.60;73.47
68329;BME280;55182;56.864;60.554;2024-01-11T01:39:20;77923.63;;;-143.60;73.62
68329;BME280;55182;56.864;60.554;2024-01-11T01:41:46;77927.66;;;-143.60;73.72
68329;BME280;55182;56.864;60.554;2024-01-11T01:44:11;77927.66;;;-143.60;73.72
68329;BME280;55182;56.864;60.554;2024-01-11T01:46:37;77941.72;;;-143.60;74.07
68329;BME280;55182;56.864;60.554;2024-01-11T01:49:02;77937.69;;;-143.60;73.71
68329;BME280;55182;56.864;60.554;2024-01-11T01:51:29;77931.66;;;-143.60;73.97
68329;BME280;55182;56.864;60.554;2024-01-11T01:53:56;77941.72;;;-143.60;73.82
68329;BME280;55182;56.864;60.554;2024-01-11T01:56:21;77949.75;;;-143.60;73.91
68329;BME280;55182;56.864;60.554;2024-01-11T01:58:47;77943.72;;;-143.60;73.58
68329;BME280;55182;56.864;60.554;2024-01-11T02:01:13;77947.75;;;-143.60;73.53
68329;BME280;55182;56.864;60.554;2024-01-11T02:03:40;77951.78;;;-143.60;73.68
68329;BME280;55182;56.864;60.554;2024-01-11T02:06:06;77959.81;;;-143.60;73.39
68329;BME280;55182;56.864;60.554;2024-01-11T02:08:32;77957.81;;;-143.60;73.41
68329;BME280;55182;56.864;60.554;2024-01-11T02:10:59;77955.78;;;-143.60;73.40
68329;BME280;55182;56.864;60.554;2024-01-11T02:13:24;77971.88;;;-143.60;73.52
68329;BME280;55182;56.864;60.554;2024-01-11T02:15:50;77963.84;;;-143.60;73.73
68329;BME280;55182;56.864;60.554;2024-01-11T02:18:17;77967.84;;;-143.60;73.70
68329;BME280;55182;56.864;60.554;2024-01-11T02:20:42;77971.88;;;-143.60;73.91
68329;BME280;55182;56.864;60.554;2024-01-11T02:23:10;77963.84;;;-143.60;73.92
68329;BME280;55182;56.864;60.554;2024-01-11T02:25:37;77971.88;;;-143.60;73.99
68329;BME280;55182;56.864;60.554;2024-01-11T02:28:02;77971.88;;;-143.60;74.48
68329;BME280;55182;56.864;60.554;2024-01-11T02:30:28;77963.84;;;-143.60;74.11
68329;BME280;55182;56.864;60.554;2024-01-11T02:32:53;77963.84;;;-143.60;74.06
68329;BME280;55182;56.864;60.554;2024-01-11T02:35:19;77969.88;;;-143.60;74.16
68329;BME280;55182;56.864;60.554;2024-01-11T02:37:45;77977.91;;;-143.60;74.51
68329;BME280;55182;56.864;60.554;2024-01-11T02:40:12;77969.88;;;-143.60;74.58
68329;BME280;55182;56.864;60.554;2024-01-11T02:42:38;77977.91;;;-143.60;74.48
68329;BME280;55182;56.864;60.554;2024-01-11T02:45:04;77985.94;;;-143.60;74.76
68329;BME280;55182;56.864;60.554;2024-01-11T02:47:30;77991.97;;;-143.60;74.95
68329;BME280;55182;56.864;60.554;2024-01-11T02:49:55;77991.97;;;-143.60;75.00
68329;BME280;55182;56.864;60.554;2024-01-11T02:52:22;77998.00;;;-143.60;75.21
68329;BME280;55182;56.864;60.554;2024-01-11T02:54:48;78002.03;;;-143.60;74.96
68329;BME280;55182;56.864;60.554;2024-01-11T02:57:14;78000.03;;;-143.60;75.04
68329;BME280;55182;56.864;60.554;2024-01-11T02:59:40;78004.03;;;-143.60;75.27
68329;BME280;55182;56.864;60.554;2024-01-11T03:02:05;78004.03;;;-143.60;75.47
68329;BME280;55182;56.864;60.554;2024-01-11T03:04:31;78006.06;;;-143.60;75.55
68329;BME280;55182;56.864;60.554;2024-01-11T03:06:56;78004.03;;;-143.60;75.21
68329;BME280;55182;56.864;60.554;2024-01-11T03:09:22;78000.03;;;-143.60;75.26
68329;BME280;55182;56.864;60.554;2024-01-11T03:11:47;78002.03;;;-143.60;75.16
68329;BME280;55182;56.864;60.554;2024-01-11T03:14:13;77993.97;;;-143.60;74.94
68329;BME280;55182;56.864;60.554;2024-01-11T03:16:38;77991.97;;;-143.60;74.75
68329;BME280;55182;56.864;60.554;2024-01-11T03:19:04;77991.97;;;-143.60;74.74
68329;BME280;55182;56.864;60.554;2024-01-11T03:21:29;77996.00;;;-143.60;74.50
68329;BME280;55182;56.864;60.554;2024-01-11T03:23:55;78004.03;;;-143.60;74.42
68329;BME280;55182;56.864;60.554;2024-01-11T03:26:20;78014.09;;;-143.60;74.17
68329;BME280;55182;56.864;60.554;2024-01-11T03:28:46;78016.09;;;-143.60;74.58
68329;BME280;55182;56.864;60.554;2024-01-11T03:31:11;78016.09;;;-143.60;74.44
68329;BME280;55182;56.864;60.554;2024-01-11T03:33:37;78024.16;;;-143.60;74.27
68329;BME280;55182;56.864;60.554;2024-01-11T03:36:11;78016.09;;;-143.60;74.46
68329;BME280;55182;56.864;60.554;2024-01-11T03:38:37;78018.09;;;-143.60;74.25
68329;BME280;55182;56.864;60.554;2024-01-11T03:41:11;78022.13;;;-143.60;74.38
68329;BME280;55182;56.864;60.554;2024-01-11T03:43:37;78016.09;;;-143.60;74.31
68329;BME280;55182;56.864;60.554;2024-01-11T03:46:03;78022.13;;;-143.60;74.32
68329;BME280;55182;56.864;60.554;2024-01-11T03:48:28;78030.19;;;-143.60;74.43
68329;BME280;55182;56.864;60.554;2024-01-11T03:50:54;78036.22;;;-143.60;74.43
68329;BME280;55182;56.864;60.554;2024-01-11T03:53:19;78040.22;;;-143.60;74.71
68329;BME280;55182;56.864;60.554;2024-01-11T03:55:45;78038.22;;;-143.60;74.57
68329;BME280;55182;56.864;60.554;2024-01-11T03:58:10;78060.34;;;-143.60;74.58
68329;BME280;55182;56.864;60.554;2024-01-11T04:00:36;78056.31;;;-143.60;74.77
68329;BME280;55182;56.864;60.554;2024-01-11T04:03:01;78068.38;;;-143.60;74.79
68329;BME280;55182;56.864;60.554;2024-01-11T04:05:26;78076.41;;;-143.60;74.73
68329;BME280;55182;56.864;60.554;2024-01-11T04:07:52;78076.41;;;-143.60;74.96
68329;BME280;55182;56.864;60.554;2024-01-11T04:10:17;78086.47;;;-143.60;74.82
68329;BME280;55182;56.864;60.554;2024-01-11T04:12:43;78092.50;;;-143.60;74.84
68329;BME280;55182;56.864;60.554;2024-01-11T04:15:11;78092.50;;;-143.60;74.84
68329;BME280;55182;56.864;60.554;2024-01-11T04:17:38;78092.50;;;-143.60;74.97
68329;BME280;55182;56.864;60.554;2024-01-11T04:20:03;78086.47;;;-143.60;74.93
68329;BME280;55182;56.864;60.554;2024-01-11T04:22:29;78082.44;;;-143.60;74.93
68329;BME280;55182;56.864;60.554;2024-01-11T04:24:54;78084.47;;;-143.60;74.77
68329;BME280;55182;56.864;60.554;2024-01-11T04:27:20;78080.44;;;-143.60;74.82
68329;BME280;55182;56.864;60.554;2024-01-11T04:29:45;78082.44;;;-143.60;75.12
68329;BME280;55182;56.864;60.554;2024-01-11T04:32:10;78076.41;;;-143.60;74.96
68329;BME280;55182;56.864;60.554;2024-01-11T04:34:36;78078.44;;;-143.60;75.17
68329;BME280;55182;56.864;60.554;2024-01-11T04:37:01;78070.38;;;-143.60;75.34
68329;BME280;55182;56.864;60.554;2024-01-11T04:39:27;78064.34;;;-143.60;75.04
68329;BME280;55182;56.864;60.554;2024-01-11T04:41:52;78056.31;;;-143.60;75.18
68329;BME280;55182;56.864;60.554;2024-01-11T04:44:18;78060.34;;;-143.60;74.96
68329;BME280;55182;56.864;60.554;2024-01-11T04:46:43;78050.28;;;-143.60;74.81
68329;BME280;55182;56.864;60.554;2024-01-11T04:49:09;78064.34;;;-143.60;74.71
68329;BME280;55182;56.864;60.554;2024-01-11T04:51:34;78064.34;;;-143.60;74.23
68329;BME280;55182;56.864;60.554;2024-01-11T04:54:00;78066.38;;;-143.60;74.06
68329;BME280;55182;56.864;60.554;2024-01-11T04:56:26;78064.34;;;-143.60;74.09
68329;BME280;55182;56.864;60.554;2024-01-11T04:58:51;78072.41;;;-143.60;74.42
68329;BME280;55182;56.864;60.554;2024-01-11T05:01:17;78084.47;;;-143.60;74.28
68329;BME280;55182;56.864;60.554;2024-01-11T05:03:43;78086.47;;;-143.60;74.30
68329;BME280;55182;56.864;60.554;2024-01-11T05:06:14;78084.47;;;-143.60;74.28
68329;BME280;55182;56.864;60.554;2024-01-11T05:08:40;78078.44;;;-143.60;74.78
68329;BME280;55182;56.864;60.554;2024-01-11T05:11:05;78068.38;;;-143.60;74.43
68329;BME280;55182;56.864;60.554;2024-01-11T05:13:31;78074.41;;;-143.60;74.51
68329;BME280;55182;56.864;60.554;2024-01-11T05:15:56;78068.38;;;-143.60;74.55
68329;BME280;55182;56.864;60.554;2024-01-11T05:18:22;78070.38;;;-143.60;74.67
68329;BME280;55182;56.864;60.554;2024-01-11T05:20:47;78080.44;;;-143.60;74.43
68329;BME280;55182;56.864;60.554;2024-01-11T05:23:13;78086.47;;;-143.60;74.43
68329;BME280;55182;56.864;60.554;2024-01-11T05:25:38;78080.44;;;-143.60;74.67
68329;BME280;55182;56.864;60.554;2024-01-11T05:28:04;78076.41;;;-143.60;74.47
68329;BME280;55182;56.864;60.554;2024-01-11T05:30:32;78064.34;;;-143.60;74.50
68329;BME280;55182;56.864;60.554;2024-01-11T05:32:58;78060.34;;;-143.60;74.18
68329;BME280;55182;56.864;60.554;2024-01-11T05:35:23;78052.28;;;-143.60;73.91
68329;BME280;55182;56.864;60.554;2024-01-11T05:37:49;78052.28;;;-143.60;73.90
68329;BME280;55182;56.864;60.554;2024-01-11T05:40:14;78042.22;;;-143.60;73.66
68329;BME280;55182;56.864;60.554;2024-01-11T05:42:40;78034.19;;;-143.60;73.77
68329;BME280;55182;56.864;60.554;2024-01-11T05:45:06;78032.19;;;-143.60;73.31
68329;BME280;55182;56.864;60.554;2024-01-11T05:47:31;78026.16;;;-143.60;73.11
68329;BME280;55182;56.864;60.554;2024-01-11T05:49:57;78016.09;;;-143.60;72.84
68329;BME280;55182;56.864;60.554;2024-01-11T05:52:22;78016.09;;;-143.60;72.60
68329;BME280;55182;56.864;60.554;2024-01-11T05:54:48;78016.09;;;-143.60;72.76
68329;BME280;55182;56.864;60.554;2024-01-11T05:57:13;78008.06;;;-143.60;72.63
68329;BME280;55182;56.864;60.554;2024-01-11T05:59:45;78006.06;;;-143.60;72.39
68329;BME280;55182;56.864;60.554;2024-01-11T06:02:11;78008.06;;;-143.60;72.26
68329;BME280;55182;56.864;60.554;2024-01-11T06:04:37;78002.03;;;-143.60;72.01
68329;BME280;55182;56.864;60.554;2024-01-11T06:07:02;77989.97;;;-143.60;72.13
68329;BME280;55182;56.864;60.554;2024-01-11T06:09:28;77991.97;;;-143.60;71.94
68329;BME280;55182;56.864;60.554;2024-01-11T06:11:53;77989.97;;;-143.60;71.99
68329;BME280;55182;56.864;60.554;2024-01-11T06:14:19;77983.94;;;-143.60;71.90
68329;BME280;55182;56.864;60.554;2024-01-11T06:16:44;77998.00;;;-143.60;72.29
68329;BME280;55182;56.864;60.554;2024-01-11T06:19:10;77983.94;;;-143.60;72.15
68329;BME280;55182;56.864;60.554;2024-01-11T06:21:35;77979.91;;;-143.60;72.05
68329;BME280;55182;56.864;60.554;2024-01-11T06:24:01;77981.94;;;-143.60;72.11
68329;BME280;55182;56.864;60.554;2024-01-11T06:26:26;77979.91;;;-143.60;71.95
68329;BME280;55182;56.864;60.554;2024-01-11T06:28:52;77971.88;;;-143.60;71.92
68329;BME280;55182;56.864;60.554;2024-01-11T06:31:17;77967.84;;;-143.60;71.72
68329;BME280;55182;56.864;60.554;2024-01-11T06:33:42;77963.84;;;-143.60;71.86
68329;BME280;55182;56.864;60.554;2024-01-11T06:36:08;77963.84;;;-143.60;71.86
68329;BME280;55182;56.864;60.554;2024-01-11T06:38:33;77959.81;;;-143.60;71.71
68329;BME280;55182;56.864;60.554;2024-01-11T06:40:59;77943.72;;;-143.60;71.55
68329;BME280;55182;56.864;60.554;2024-01-11T06:43:25;77939.72;;;-143.60;71.50
68329;BME280;55182;56.864;60.554;2024-01-11T06:45:50;77939.72;;;-143.60;71.41
68329;BME280;55182;56.864;60.554;2024-01-11T06:48:16;77919.59;;;-143.60;71.12
68329;BME280;55182;56.864;60.554;2024-01-11T06:50:41;77917.59;;;-143.60;71.11
68329;BME280;55182;56.864;60.554;2024-01-11T06:53:07;77901.50;;;-143.60;71.04
68329;BME280;55182;56.864;60.554;2024-01-11T06:55:32;77903.53;;;-143.60;70.48
68329;BME280;55182;56.864;60.554;2024-01-11T06:57:58;77897.50;;;-143.60;70.56
68329;BME280;55182;56.864;60.554;2024-01-11T07:00:23;77891.47;;;-143.60;70.43
68329;BME280;55182;56.864;60.554;2024-01-11T07:02:49;77879.41;;;-143.60;70.30
68329;BME280;55182;56.864;60.554;2024-01-11T07:05:14;77875.38;;;-143.60;70.09
68329;BME280;55182;56.864;60.554;2024-01-11T07:07:40;77881.41;;;-143.60;70.08
68329;BME280;55182;56.864;60.554;2024-01-11T07:10:05;77879.41;;;-143.60;70.12
68329;BME280;55182;56.864;60.554;2024-01-11T07:12:31;77871.34;;;-143.60;70.01
68329;BME280;55182;56.864;60.554;2024-01-11T07:14:57;77869.34;;;-143.60;70.07
68329;BME280;55182;56.864;60.554;2024-01-11T07:17:22;77853.25;;;-143.60;69.86
68329;BME280;55182;56.864;60.554;2024-01-11T07:19:48;77857.28;;;-143.60;69.83
68329;BME280;55182;56.864;60.554;2024-01-11T07:22:13;77853.25;;;-143.60;69.70
68329;BME280;55182;56.864;60.554;2024-01-11T07:24:39;77839.19;;;-143.60;69.93
68329;BME280;55182;56.864;60.554;2024-01-11T07:27:04;77849.25;;;-143.60;69.66
68329;BME280;55182;56.864;60.554;2024-01-11T07:29:30;77847.22;;;-143.60;69.72
68329;BME280;55182;56.864;60.554;2024-01-11T07:31:56;77853.25;;;-143.60;69.64
68329;BME280;55182;56.864;60.554;2024-01-11T07:34:21;77847.22;;;-143.60;69.60
68329;BME280;55182;56.864;60.554;2024-01-11T07:36:46;77843.22;;;-143.60;70.14
68329;BME280;55182;56.864;60.554;2024-01-11T07:39:12;77839.19;;;-143.60;70.14
68329;BME280;55182;56.864;60.554;2024-01-11T07:41:37;77837.19;;;-143.60;70.22
68329;BME280;55182;56.864;60.554;2024-01-11T07:44:06;77833.16;;;-143.60;70.30
68329;BME280;55182;56.864;60.554;2024-01-11T07:46:32;77835.16;;;-143.60;70.32
68329;BME280;55182;56.864;60.554;2024-01-11T07:48:57;77841.19;;;-143.60;70.33
68329;BME280;55182;56.864;60.554;2024-01-11T07:51:23;77831.16;;;-143.60;70.22
68329;BME280;55182;56.864;60.554;2024-01-11T07:53:48;77833.16;;;-143.60;70.24
68329;BME280;55182;56.864;60.554;2024-01-11T07:56:14;77819.09;;;-143.60;70.18
68329;BME280;55182;56.864;60.554;2024-01-11T07:58:40;77805.00;;;-143.60;69.82
68329;BME280;55182;56.864;60.554;2024-01-11T08:01:05;77801.00;;;-143.60;69.80
68329;BME280;55182;56.864;60.554;2024-01-11T08:03:31;77794.97;;;-143.60;69.55
68329;BME280;55182;56.864;60.554;2024-01-11T08:05:56;77774.84;;;-143.60;69.28
68329;BME280;55182;56.864;60.554;2024-01-11T08:08:22;77774.84;;;-143.60;69.64
68329;BME280;55182;56.864;60.554;2024-01-11T08:10:47;77774.84;;;-143.60;69.42
68329;BME280;55182;56.864;60.554;2024-01-11T08:13:13;77762.78;;;-143.60;69.49
68329;BME280;55182;56.864;60.554;2024-01-11T08:15:38;77762.78;;;-143.60;69.42
68329;BME280;55182;56.864;60.554;2024-01-11T08:18:04;77758.78;;;-143.60;69.36
68329;BME280;55182;56.864;60.554;2024-01-11T08:20:29;77742.69;;;-143.60;69.25
68329;BME280;55182;56.864;60.554;2024-01-11T08:22:54;77744.69;;;-143.60;69.29
68329;BME280;55182;56.864;60.554;2024-01-11T08:25:20;77734.66;;;-143.60;69.41
68329;BME280;55182;56.864;60.554;2024-01-11T08:27:45;77730.63;;;-143.60;69.24
68329;BME280;55182;56.864;60.554;2024-01-11T08:30:11;77722.59;;;-143.60;68.97
68329;BME280;55182;56.864;60.554;2024-01-11T08:32:36;77722.59;;;-143.60;68.96
68329;BME280;55182;56.864;60.554;2024-01-11T08:35:02;77726.59;;;-143.60;69.17
68329;BME280;55182;56.864;60.554;2024-01-11T08:37:27;77718.56;;;-143.60;69.04
68329;BME280;55182;56.864;60.554;2024-01-11T08:39:53;77714.56;;;-143.60;69.13
68329;BME280;55182;56.864;60.554;2024-01-11T08:42:18;77710.53;;;-143.60;69.17
68329;BME280;55182;56.864;60.554;2024-01-11T08:44:44;77706.50;;;-143.60;69.56
68329;BME280;55182;56.864;60.554;2024-01-11T08:47:09;77706.50;;;-143.60;69.49
68329;BME280;55182;56.864;60.554;2024-01-11T08:49:38;77704.50;;;-143.60;69.45
68329;BME280;55182;56.864;60.554;2024-01-11T08:52:04;77702.50;;;-143.60;69.50
68329;BME280;55182;56.864;60.554;2024-01-11T08:54:30;77690.44;;;-143.60;69.33
68329;BME280;55182;56.864;60.554;2024-01-11T08:56:55;77694.44;;;-143.60;69.37
68329;BME280;55182;56.864;60.554;2024-01-11T08:59:21;77690.44;;;-143.60;69.38
68329;BME280;55182;56.864;60.554;2024-01-11T09:01:46;77682.38;;;-143.60;69.36
68329;BME280;55182;56.864;60.554;2024-01-11T09:04:12;77676.34;;;-143.60;69.42
68329;BME280;55182;56.864;60.554;2024-01-11T09:06:37;77680.38;;;-143.60;69.54
68329;BME280;55182;56.864;60.554;2024-01-11T09:09:03;77674.34;;;-143.60;69.42
68329;BME280;55182;56.864;60.554;2024-01-11T09:11:28;77670.31;;;-143.60;69.39
68329;BME280;55182;56.864;60.554;2024-01-11T09:13:53;77658.25;;;-143.60;69.24
68329;BME280;55182;56.864;60.554;2024-01-11T09:16:19;77662.28;;;-143.60;69.62
68329;BME280;55182;56.864;60.554;2024-01-11T09:18:44;77650.22;;;-143.60;69.51
68329;BME280;55182;56.864;60.554;2024-01-11T09:21:10;77658.25;;;-143.60;69.37
68329;BME280;55182;56.864;60.554;2024-01-11T09:23:36;77652.22;;;-143.60;69.28
68329;BME280;55182;56.864;60.554;2024-01-11T09:26:01;77650.22;;;-143.60;69.38
68329;BME280;55182;56.864;60.554;2024-01-11T09:28:27;77658.25;;;-143.60;69.43
68329;BME280;55182;56.864;60.554;2024-01-11T09:30:53;77650.22;;;-143.60;69.67
68329;BME280;55182;56.864;60.554;2024-01-11T09:33:18;77656.25;;;-143.60;69.96
68329;BME280;55182;56.864;60.554;2024-01-11T09:35:44;77648.22;;;-143.60;69.80
68329;BME280;55182;56.864;60.554;2024-01-11T09:38:09;77656.25;;;-143.60;69.96
68329;BME280;55182;56.864;60.554;2024-01-11T09:40:35;77654.25;;;-143.60;69.96
68329;BME280;55182;56.864;60.554;2024-01-11T09:43:01;77654.25;;;-143.60;69.93
68329;BME280;55182;56.864;60.554;2024-01-11T09:45:28;77650.22;;;-143.60;70.13
68329;BME280;55182;56.864;60.554;2024-01-11T09:47:54;77644.19;;;-143.60;70.22
68329;BME280;55182;56.864;60.554;2024-01-11T09:50:19;77656.25;;;-143.60;70.15
68329;BME280;55182;56.864;60.554;2024-01-11T09:52:46;77650.22;;;-143.60;70.30
68329;BME280;55182;56.864;60.554;2024-01-11T09:55:12;77658.25;;;-143.60;70.27
68329;BME280;55182;56.864;60.554;2024-01-11T09:57:38;77654.25;;;-143.60;69.98
68329;BME280;55182;56.864;60.554;2024-01-11T10:00:06;77650.22;;;-143.60;70.04
68329;BME280;55182;56.864;60.554;2024-01-11T10:02:32;77654.25;;;-143.60;69.95
68329;BME280;55182;56.864;60.554;2024-01-11T10:04:58;77654.25;;;-143.60;69.94
68329;BME280;55182;56.864;60.554;2024-01-11T10:07:24;77666.31;;;-143.60;69.94
68329;BME280;55182;56.864;60.554;2024-01-11T10:09:49;77666.31;;;-143.60;70.14
68329;BME280;55182;56.864;60.554;2024-01-11T10:12:17;77664.28;;;-143.60;70.27
68329;BME280;55182;56.864;60.554;2024-01-11T10:14:42;77670.31;;;-143.60;70.40
68329;BME280;55182;56.864;60.554;2024-01-11T10:17:08;77662.28;;;-143.60;70.52
68329;BME280;55182;56.864;60.554;2024-01-11T10:19:33;77658.25;;;-143.60;70.78
68329;BME280;55182;56.864;60.554;2024-01-11T10:21:59;77674.34;;;-143.60;70.85
68329;BME280;55182;56.864;60.554;2024-01-11T10:24:24;77658.25;;;-143.60;71.00
68329;BME280;55182;56.864;60.554;2024-01-11T10:26:50;77662.28;;;-143.60;71.56
68329;BME280;55182;56.864;60.554;2024-01-11T10:29:15;77672.34;;;-143.60;71.79
68329;BME280;55182;56.864;60.554;2024-01-11T10:31:41;77686.41;;;-143.60;71.82
68329;BME280;55182;56.864;60.554;2024-01-11T10:34:07;77684.41;;;-143.60;72.09
68329;BME280;55182;56.864;60.554;2024-01-11T10:36:32;77670.31;;;-143.60;72.05
68329;BME280;55182;56.864;60.554;2024-01-11T10:38:59;77670.31;;;-143.60;71.89
68329;BME280;55182;56.864;60.554;2024-01-11T10:41:26;77680.38;;;-143.60;72.18
68329;BME280;55182;56.864;60.554;2024-01-11T10:43:54;77660.28;;;-143.60;71.88
68329;BME280;55182;56.864;60.554;2024-01-11T10:46:22;77666.31;;;-143.60;72.13
68329;BME280;55182;56.864;60.554;2024-01-11T10:48:51;77662.28;;;-143.60;72.06
68329;BME280;55182;56.864;60.554;2024-01-11T10:51:19;77666.31;;;-143.60;72.20
68329;BME280;55182;56.864;60.554;2024-01-11T10:53:47;77672.34;;;-143.60;72.03
68329;BME280;55182;56.864;60.554;2024-01-11T10:56:15;77680.38;;;-143.60;72.16
68329;BME280;55182;56.864;60.554;2024-01-11T10:58:41;77694.44;;;-143.60;72.36
68329;BME280;55182;56.864;60.554;2024-01-11T11:01:06;77696.47;;;-143.60;72.18
68329;BME280;55182;56.864;60.554;2024-01-11T11:03:33;77702.50;;;-143.60;72.18
68329;BME280;55182;56.864;60.554;2024-01-11T11:05:58;77694.44;;;-143.60;72.15
68329;BME280;55182;56.864;60.554;2024-01-11T11:08:25;77692.44;;;-143.60;72.07
68329;BME280;55182;56.864;60.554;2024-01-11T11:10:54;77694.44;;;-143.60;72.05
68329;BME280;55182;56.864;60.554;2024-01-11T11:13:20;77702.50;;;-143.60;71.98
68329;BME280;55182;56.864;60.554;2024-01-11T11:15:46;77702.50;;;-143.60;72.37
68329;BME280;55182;56.864;60.554;2024-01-11T11:18:14;77710.53;;;-143.60;72.21
68329;BME280;55182;56.864;60.554;2024-01-11T11:20:40;77706.50;;;-143.60;72.47
68329;BME280;55182;56.864;60.554;2024-01-11T11:23:06;77710.53;;;-143.60;72.34
68329;BME280;55182;56.864;60.554;2024-01-11T11:25:32;77714.56;;;-143.60;72.34
68329;BME280;55182;56.864;60.554;2024-01-11T11:27:58;77726.59;;;-143.60;72.26
68329;BME280;55182;56.864;60.554;2024-01-11T11:30:23;77728.63;;;-143.60;72.44
68329;BME280;55182;56.864;60.554;2024-01-11T11:32:52;77732.63;;;-143.60;72.81
68329;BME280;55182;56.864;60.554;2024-01-11T11:35:17;77742.69;;;-143.60;72.72
68329;BME280;55182;56.864;60.554;2024-01-11T11:37:42;77748.72;;;-143.60;72.53
68329;BME280;55182;56.864;60.554;2024-01-11T11:40:09;77746.72;;;-143.60;72.92
68329;BME280;55182;56.864;60.554;2024-01-11T11:42:34;77744.69;;;-143.60;72.91
68329;BME280;55182;56.864;60.554;2024-01-11T11:45:00;77756.75;;;-143.60;73.08
68329;BME280;55182;56.864;60.554;2024-01-11T11:47:34;77756.75;;;-143.60;72.89
68329;BME280;55182;56.864;60.554;2024-01-11T11:52:28;77774.84;;;-143.60;73.25
68329;BME280;55182;56.864;60.554;2024-01-11T11:54:54;77774.84;;;-143.60;73.05
68329;BME280;55182;56.864;60.554;2024-01-11T11:57:21;77786.91;;;-143.60;73.49
68329;BME280;55182;56.864;60.554;2024-01-11T11:59:47;77794.97;;;-143.60;73.51
68329;BME280;55182;56.864;60.554;2024-01-11T12:02:14;77794.97;;;-143.60;73.57
68329;BME280;55182;56.864;60.554;2024-01-11T12:04:46;77794.97;;;-143.60;73.80
68329;BME280;55182;56.864;60.554;2024-01-11T12:07:11;77803.00;;;-143.60;73.60
68329;BME280;55182;56.864;60.554;2024-01-11T12:09:37;77803.00;;;-143.60;73.68
68329;BME280;55182;56.864;60.554;2024-01-11T12:12:02;77798.97;;;-143.60;73.81
68329;BME280;55182;56.864;60.554;2024-01-11T12:14:28;77790.94;;;-143.60;73.66
68329;BME280;55182;56.864;60.554;2024-01-11T12:16:57;77798.97;;;-143.60;73.94
68329;BME280;55182;56.864;60.554;2024-01-11T12:19:23;77803.00;;;-143.60;73.77
68329;BME280;55182;56.864;60.554;2024-01-11T12:21:49;77809.03;;;-143.60;73.94
68329;BME280;55182;56.864;60.554;2024-01-11T12:24:15;77811.03;;;-143.60;73.92
68329;BME280;55182;56.864;60.554;2024-01-11T12:26:40;77819.09;;;-143.60;74.14